Time;durP1;ratioP1;P1;durP2;ratioP2;P2;SDS_P1;SDS_P2;PMS_P1;PMS_P2;Temp;Humidity;BMP_temperature;BMP_pressure;BME280_temperature;BME280_humidity;BME280_pressure;Samples;Min_cycle;Max_cycle;Signal;HPM_P1;HPM_P2
2021/06/12 00:00:30;;;;;;;15.43;8.60;;;;;;;20.26;50.18;101809.25;4153637;28;20033;-58
2021/06/12 00:02:30;;;;;;;18.48;9.25;;;;;;;20.27;49.98;101810.13;4154831;28;20488;-57
2021/06/12 00:04:32;;;;;;;18.90;9.18;;;;;;;20.30;50.25;101810.41;4156688;28;20040;-55
2021/06/12 00:06:32;;;;;;;19.50;10.50;;;;;;;19.97;50.73;101803.16;4157833;28;20026;-56
2021/06/12 00:08:33;;;;;;;18.95;11.02;;;;;;;20.09;50.76;101811.34;4157251;28;20041;-56
2021/06/12 00:10:36;;;;;;;17.65;10.00;;;;;;;20.11;50.57;101815.53;4160525;28;20052;-52
2021/06/12 00:12:37;;;;;;;14.77;9.35;;;;;;;20.10;50.31;101807.47;4154888;28;20108;-53
2021/06/12 00:14:37;;;;;;;16.23;8.95;;;;;;;20.06;50.64;101811.88;4152084;28;20115;-55
2021/06/12 00:16:37;;;;;;;16.75;9.43;;;;;;;19.75;51.41;101809.56;4155704;28;20098;-53
2021/06/12 00:18:38;;;;;;;13.77;9.00;;;;;;;19.72;51.51;101792.59;4155829;28;20030;-56
2021/06/12 00:20:38;;;;;;;14.15;8.57;;;;;;;20.29;50.19;101802.34;4156220;28;20029;-57
2021/06/12 00:22:42;;;;;;;14.57;7.97;;;;;;;20.20;50.21;101801.97;4155375;28;20108;-54
2021/06/12 00:24:42;;;;;;;15.70;9.50;;;;;;;19.86;51.13;101793.88;4155728;28;20049;-55
2021/06/12 00:26:43;;;;;;;15.00;7.68;;;;;;;20.31;49.68;101798.19;4155975;28;20034;-55
2021/06/12 00:28:43;;;;;;;11.60;8.02;;;;;;;20.25;49.85;101809.53;4153902;28;20127;-54
2021/06/12 00:30:44;;;;;;;16.85;8.10;;;;;;;20.58;48.71;101818.72;4158192;28;20033;-55
2021/06/12 00:32:44;;;;;;;10.90;6.95;;;;;;;20.65;48.79;101819.31;4157695;28;20033;-54
2021/06/12 00:34:45;;;;;;;12.55;7.25;;;;;;;20.48;49.17;101823.06;4154223;28;20403;-55
2021/06/12 00:36:46;;;;;;;9.50;6.70;;;;;;;20.49;49.10;101821.94;4157975;28;20080;-55
2021/06/12 00:38:48;;;;;;;11.20;7.28;;;;;;;19.94;50.73;101826.78;4151969;28;20535;-59
2021/06/12 00:40:48;;;;;;;10.85;7.70;;;;;;;19.95;50.64;101825.66;4157912;28;20030;-58
2021/06/12 00:42:51;;;;;;;11.05;7.70;;;;;;;20.00;50.19;101821.25;4156661;28;20057;-58
2021/06/12 00:44:52;;;;;;;9.95;7.15;;;;;;;20.11;50.07;101825.81;4154148;28;20068;-57
2021/06/12 00:46:52;;;;;;;14.52;8.65;;;;;;;19.89;50.97;101814.75;4158351;28;20033;-56
2021/06/12 00:48:53;;;;;;;10.13;6.43;;;;;;;20.04;50.18;101814.91;4157128;28;20029;-57
2021/06/12 00:50:55;;;;;;;10.23;6.13;;;;;;;20.01;50.45;101820.16;4157051;28;20045;-57
2021/06/12 00:52:55;;;;;;;8.55;5.55;;;;;;;20.26;49.84;101820.38;4150485;28;20103;-57
2021/06/12 00:54:56;;;;;;;10.57;6.75;;;;;;;20.06;50.02;101823.81;4155889;28;20038;-55
2021/06/12 00:56:58;;;;;;;10.63;6.35;;;;;;;20.05;50.11;101824.06;4155344;28;20112;-56
2021/06/12 00:59:00;;;;;;;10.63;6.22;;;;;;;19.93;50.71;101822.31;4133937;28;20045;-55
2021/06/12 01:01:00;;;;;;;10.02;6.50;;;;;;;20.16;49.79;101813.88;4143295;28;20104;-59
2021/06/12 01:03:02;;;;;;;8.40;5.80;;;;;;;20.02;50.17;101827.38;4159481;28;20423;-58
2021/06/12 01:05:08;;;;;;;7.88;5.60;;;;;;;19.97;50.28;101816.22;4156974;28;20396;-58
2021/06/12 01:07:09;;;;;;;10.80;5.53;;;;;;;19.98;50.46;101821.53;4156514;28;20053;-60
2021/06/12 01:09:09;;;;;;;9.52;5.55;;;;;;;19.88;50.49;101819.50;4155477;28;20446;-58
2021/06/12 01:11:11;;;;;;;6.05;5.07;;;;;;;19.89;50.40;101818.38;4151647;28;20038;-58
2021/06/12 01:13:14;;;;;;;8.48;4.88;;;;;;;19.87;50.41;101812.25;4155717;28;20498;-56
2021/06/12 01:15:16;;;;;;;9.88;5.43;;;;;;;19.78;50.68;101814.63;4157599;28;20116;-56
2021/06/12 01:17:23;;;;;;;8.45;4.80;;;;;;;19.94;50.19;101809.25;4152963;28;20033;-59
2021/06/12 01:19:53;;;;;;;6.22;4.78;;;;;;;19.85;50.29;101806.13;4156631;28;20124;-58
2021/06/12 01:22:01;;;;;;;5.85;4.38;;;;;;;19.46;51.34;101810.94;4119219;28;20091;-57
2021/06/12 01:24:42;;;;;;;7.65;4.57;;;;;;;19.53;51.22;101814.34;4157337;28;20483;-56
2021/06/12 01:27:14;;;;;;;6.78;4.45;;;;;;;19.73;50.67;101806.22;4142680;28;20045;-58
2021/06/12 01:29:39;;;;;;;6.90;3.78;;;;;;;19.73;50.61;101799.84;4156678;28;20095;-58
2021/06/12 01:31:42;;;;;;;8.73;4.45;;;;;;;19.66;50.03;101768.66;4149829;28;20116;-58
2021/06/12 01:33:44;;;;;;;5.40;4.13;;;;;;;19.73;50.49;101794.28;4153176;28;20039;-59
2021/06/12 01:35:51;;;;;;;8.40;4.53;;;;;;;19.72;50.57;101789.81;4156488;28;20052;-58
2021/06/12 01:37:54;;;;;;;9.82;4.85;;;;;;;19.46;51.20;101791.50;4154411;28;20022;-58
2021/06/12 01:39:55;;;;;;;8.57;3.60;;;;;;;19.66;50.42;101785.31;4154084;28;20033;-57
2021/06/12 01:41:59;;;;;;;6.57;3.75;;;;;;;19.69;50.45;101796.75;4157906;28;20057;-56
2021/06/12 01:44:01;;;;;;;8.23;4.88;;;;;;;19.62;50.88;101798.03;4155249;28;20488;-57
2021/06/12 01:46:05;;;;;;;8.93;3.80;;;;;;;19.94;49.78;101790.66;4153955;28;20040;-57
2021/06/12 01:48:08;;;;;;;8.32;4.40;;;;;;;19.56;50.66;101792.44;4153466;28;20044;-57
2021/06/12 01:50:10;;;;;;;8.23;4.60;;;;;;;19.60;50.75;101796.38;4154561;28;20095;-59
2021/06/12 01:52:13;;;;;;;4.65;3.65;;;;;;;19.70;50.21;101789.25;4154867;28;20538;-59
2021/06/12 01:54:16;;;;;;;6.28;3.70;;;;;;;19.72;50.38;101796.22;4139341;28;20041;-57
2021/06/12 01:56:17;;;;;;;6.88;3.92;;;;;;;19.46;51.02;101797.88;4154202;28;20427;-56
2021/06/12 01:58:20;;;;;;;6.30;3.65;;;;;;;19.47;51.09;101801.50;4132361;28;20117;-54
2021/06/12 02:00:22;;;;;;;6.63;4.22;;;;;;;19.52;50.97;101802.38;4153848;28;20091;-55
2021/06/12 02:02:22;;;;;;;5.88;3.38;;;;;;;19.54;50.69;101796.56;4159374;28;20033;-53
2021/06/12 02:04:23;;;;;;;6.50;4.35;;;;;;;19.36;51.42;101789.44;4151773;28;20034;-55
2021/06/12 02:06:24;;;;;;;7.65;4.05;;;;;;;19.48;51.06;101794.84;4156793;28;20065;-56
2021/06/12 02:08:26;;;;;;;7.18;3.90;;;;;;;19.52;50.95;101796.00;4158929;28;20037;-54
2021/06/12 02:10:31;;;;;;;7.03;3.80;;;;;;;19.30;51.03;101788.53;4157553;28;20036;-54
2021/06/12 02:12:34;;;;;;;8.80;4.13;;;;;;;19.52;50.67;101788.50;4160283;28;20029;-54
2021/06/12 02:14:36;;;;;;;7.07;4.18;;;;;;;19.22;51.49;101781.50;4144631;28;20033;-54
2021/06/12 02:16:38;;;;;;;5.47;3.45;;;;;;;19.26;51.19;101792.91;4159509;28;20779;-55
2021/06/12 02:18:41;;;;;;;7.22;4.10;;;;;;;19.33;51.20;101796.34;4157956;28;20037;-54
2021/06/12 02:20:42;;;;;;;6.00;3.75;;;;;;;19.41;50.99;101789.50;4156766;28;20069;-54
2021/06/12 02:22:46;;;;;;;6.95;4.00;;;;;;;19.12;51.63;101795.22;4156461;28;20095;-54
2021/06/12 02:24:46;;;;;;;13.10;4.85;;;;;;;19.16;51.46;101784.47;4156774;28;20446;-54
2021/06/12 02:26:51;;;;;;;7.38;3.63;;;;;;;19.23;51.14;101785.97;4155360;28;20034;-53
2021/06/12 02:28:52;;;;;;;8.80;3.50;;;;;;;19.00;51.39;101762.06;4159792;28;20030;-55
2021/06/12 02:30:57;;;;;;;9.13;4.25;;;;;;;19.28;50.92;101770.44;4160223;28;20037;-55
2021/06/12 02:33:04;;;;;;;7.97;4.30;;;;;;;19.36;50.85;101784.72;4158178;28;20129;-56
2021/06/12 02:35:07;;;;;;;6.00;3.78;;;;;;;19.35;50.73;101783.03;4156675;28;20041;-55
2021/06/12 02:37:08;;;;;;;8.68;3.67;;;;;;;19.58;50.14;101781.91;4158444;28;20057;-55
2021/06/12 02:39:08;;;;;;;8.50;4.10;;;;;;;19.30;50.58;101780.19;4157774;28;20053;-55
2021/06/12 02:41:09;;;;;;;7.30;3.72;;;;;;;19.50;50.32;101773.22;4157251;28;20063;-54
2021/06/12 02:43:09;;;;;;;9.02;4.25;;;;;;;19.45;50.35;101775.91;4158727;28;20051;-55
2021/06/12 02:45:11;;;;;;;6.50;3.55;;;;;;;19.45;50.43;101770.38;4149021;28;20037;-54
2021/06/12 02:47:14;;;;;;;10.63;3.78;;;;;;;19.40;50.38;101774.78;4157533;28;20030;-55
2021/06/12 02:49:18;;;;;;;9.05;3.95;;;;;;;19.21;50.82;101777.03;4156774;28;20029;-56
2021/06/12 02:51:19;;;;;;;8.75;3.92;;;;;;;19.10;51.55;101785.50;4157287;28;20036;-54
2021/06/12 02:53:24;;;;;;;8.23;4.50;;;;;;;19.17;51.03;101777.81;4156139;28;20071;-53
2021/06/12 02:55:28;;;;;;;6.97;4.18;;;;;;;19.06;51.05;101751.84;4155063;28;20030;-56
2021/06/12 02:57:30;;;;;;;7.00;4.05;;;;;;;19.38;50.65;101781.69;4156984;28;20041;-56
2021/06/12 02:59:32;;;;;;;7.32;4.32;;;;;;;19.06;51.14;101774.03;4158418;28;20431;-55
2021/06/12 03:01:35;;;;;;;8.82;3.92;;;;;;;19.17;50.99;101794.47;4158403;28;20040;-53
2021/06/12 03:03:37;;;;;;;11.60;4.25;;;;;;;19.08;51.29;101796.84;4157934;28;20033;-55
2021/06/12 03:05:43;;;;;;;8.50;3.70;;;;;;;19.40;50.69;101807.22;4159893;28;20029;-56
2021/06/12 03:07:47;;;;;;;7.00;4.05;;;;;;;19.02;51.11;101795.91;4156990;28;20025;-52
2021/06/12 03:09:48;;;;;;;9.80;3.88;;;;;;;19.30;50.51;101794.09;4159647;28;20116;-54
2021/06/12 03:11:51;;;;;;;9.20;4.28;;;;;;;19.27;50.61;101793.78;4160477;28;20463;-53
2021/06/12 03:13:54;;;;;;;9.13;4.55;;;;;;;19.39;50.33;101806.41;4156150;28;20056;-56
2021/06/12 03:15:56;;;;;;;10.27;4.07;;;;;;;19.57;49.63;101793.28;4158915;28;20034;-54
2021/06/12 03:17:57;;;;;;;6.85;4.10;;;;;;;19.20;50.54;101794.81;4156698;28;20033;-56
2021/06/12 03:19:59;;;;;;;10.00;4.60;;;;;;;19.19;50.71;101807.00;4155879;28;20040;-55
2021/06/12 03:22:04;;;;;;;11.68;4.25;;;;;;;19.46;50.00;101817.31;4154410;28;20492;-54
2021/06/12 03:24:06;;;;;;;10.52;4.50;;;;;;;19.05;51.06;101816.78;4156344;28;20021;-53
2021/06/12 03:26:09;;;;;;;10.13;4.85;;;;;;;19.06;51.01;101812.88;4159680;28;20399;-51
2021/06/12 03:28:09;;;;;;;9.40;4.22;;;;;;;19.45;50.02;101828.66;4155638;28;20061;-54
2021/06/12 03:30:10;;;;;;;7.20;3.80;;;;;;;19.49;50.03;101829.84;4157465;28;20025;-53
2021/06/12 03:32:11;;;;;;;9.15;4.30;;;;;;;19.73;49.18;101822.91;4151513;28;20140;-55
2021/06/12 03:34:12;;;;;;;10.70;4.25;;;;;;;19.60;49.44;101824.16;4158616;28;20057;-55
2021/06/12 03:36:13;;;;;;;9.07;3.70;;;;;;;19.53;49.34;101811.56;4157333;28;20049;-55
2021/06/12 03:38:14;;;;;;;7.70;4.18;;;;;;;19.67;49.40;101825.91;4157823;28;20648;-58
2021/06/12 03:40:15;;;;;;;6.40;3.50;;;;;;;19.67;49.02;101825.91;4158962;28;20029;-57
2021/06/12 03:42:16;;;;;;;12.07;3.80;;;;;;;19.59;49.34;101825.25;4157312;28;20038;-55
2021/06/12 03:44:17;;;;;;;7.95;3.55;;;;;;;19.49;49.64;101827.88;4154760;28;20045;-56
2021/06/12 03:46:19;;;;;;;9.77;3.80;;;;;;;19.60;49.47;101824.16;4157957;28;20040;-55
2021/06/12 03:48:21;;;;;;;7.55;3.72;;;;;;;19.58;49.64;101823.56;4158632;28;20417;-53
2021/06/12 03:50:22;;;;;;;10.02;4.15;;;;;;;19.47;49.97;101824.53;4156197;28;20488;-50
2021/06/12 03:52:27;;;;;;;6.13;3.50;;;;;;;19.55;49.56;101826.84;4161010;28;20117;-49
2021/06/12 03:54:30;;;;;;;6.90;3.67;;;;;;;19.69;49.09;101824.50;4159355;28;20037;-49
2021/06/12 03:56:33;;;;;;;8.95;3.97;;;;;;;19.56;49.26;101823.00;4152891;28;20037;-53
2021/06/12 03:58:34;;;;;;;11.63;4.10;;;;;;;19.34;49.89;101842.44;4156797;28;20029;-53
2021/06/12 04:00:36;;;;;;;7.18;3.85;;;;;;;19.46;49.42;101820.09;4155296;28;20038;-52
2021/06/12 04:02:36;;;;;;;9.73;4.32;;;;;;;19.25;50.32;101827.34;4160212;28;20033;-50
2021/06/12 04:04:37;;;;;;;7.85;3.72;;;;;;;19.43;49.87;101826.16;4156152;28;20033;-48
2021/06/12 04:06:38;;;;;;;9.73;3.75;;;;;;;19.62;49.41;101821.13;4141740;28;20057;-50
2021/06/12 04:08:39;;;;;;;8.35;4.05;;;;;;;19.43;50.03;101834.47;4157004;28;20029;-50
2021/06/12 04:10:39;;;;;;;5.72;3.30;;;;;;;19.66;49.22;101835.31;4156572;28;20067;-52
2021/06/12 04:12:41;;;;;;;6.30;3.33;;;;;;;19.49;49.48;101833.44;4155319;28;20051;-53
2021/06/12 04:14:41;;;;;;;8.15;3.92;;;;;;;19.56;49.29;101842.44;4154867;28;20041;-52
2021/06/12 04:16:41;;;;;;;7.20;3.80;;;;;;;19.71;48.81;101846.47;4152730;28;20026;-52
2021/06/12 04:18:42;;;;;;;9.50;3.88;;;;;;;19.37;49.57;101833.59;4156250;28;20055;-55
2021/06/12 04:20:43;;;;;;;5.55;3.30;;;;;;;19.51;49.18;101845.16;4153157;28;20029;-51
2021/06/12 04:22:43;;;;;;;8.18;3.65;;;;;;;19.69;49.12;101841.19;4142346;28;20057;-54
2021/06/12 04:24:44;;;;;;;6.53;3.20;;;;;;;19.45;49.32;101832.31;4150580;28;20072;-58
2021/06/12 04:26:44;;;;;;;5.13;2.70;;;;;;;19.49;49.26;101833.44;4150491;28;20087;-57
2021/06/12 04:28:45;;;;;;;6.88;3.88;;;;;;;19.94;48.30;101843.44;4154156;28;20045;-56
2021/06/12 04:30:45;;;;;;;9.07;3.20;;;;;;;20.06;47.71;101842.44;4157552;28;20053;-60
2021/06/12 04:32:46;;;;;;;8.65;3.63;;;;;;;19.84;48.35;101843.31;4151888;28;20034;-60
2021/06/12 04:34:46;;;;;;;7.85;3.67;;;;;;;19.55;48.51;101818.53;4157279;28;20557;-60
2021/06/12 04:36:47;;;;;;;6.53;3.60;;;;;;;19.53;49.11;101870.72;4159210;28;20037;-60
2021/06/12 04:38:47;;;;;;;8.73;3.00;;;;;;;19.89;48.08;101870.34;4154969;28;20033;-60
2021/06/12 04:40:48;;;;;;;5.95;3.08;;;;;;;19.81;47.99;101874.38;4156961;28;20029;-60
2021/06/12 04:42:48;;;;;;;4.55;3.08;;;;;;;19.49;48.87;101868.72;4155664;28;20443;-60
2021/06/12 04:44:48;;;;;;;5.63;2.70;;;;;;;19.50;48.70;101857.34;4158695;28;20033;-60
2021/06/12 04:46:49;;;;;;;6.40;2.80;;;;;;;19.76;47.96;101874.34;4153026;28;20822;-52
2021/06/12 04:48:49;;;;;;;3.97;2.70;;;;;;;19.49;48.52;101868.72;4153743;28;20167;-52
2021/06/12 04:50:50;;;;;;;5.72;3.22;;;;;;;19.65;48.26;101875.28;4158260;28;20040;-54
2021/06/12 04:52:50;;;;;;;4.47;2.88;;;;;;;19.80;47.89;101869.91;4158251;28;20507;-50
2021/06/12 04:54:52;;;;;;;4.57;2.90;;;;;;;19.80;48.10;101875.47;4152136;28;20052;-50
2021/06/12 04:56:52;;;;;;;7.18;2.63;;;;;;;19.89;47.84;101865.59;4151000;28;20153;-51
2021/06/12 04:58:53;;;;;;;4.65;2.42;;;;;;;19.73;47.86;101852.63;4154139;28;20131;-51
2021/06/12 05:00:54;;;;;;;7.43;2.90;;;;;;;19.90;47.55;101860.91;4154884;28;20201;-51
2021/06/12 05:02:54;;;;;;;3.80;2.75;;;;;;;20.02;47.29;101864.38;4151161;28;20033;-52
2021/06/12 05:04:54;;;;;;;3.97;2.60;;;;;;;20.11;47.18;101861.94;4153401;28;20091;-53
2021/06/12 05:06:55;;;;;;;7.10;2.53;;;;;;;20.06;47.07;101857.16;4159385;28;20052;-50
2021/06/12 05:08:55;;;;;;;4.15;2.50;;;;;;;20.00;46.91;101858.22;4157211;28;20628;-50
2021/06/12 05:10:55;;;;;;;5.60;3.38;;;;;;;19.75;47.49;101858.75;4157688;28;20029;-51
2021/06/12 05:12:56;;;;;;;5.53;2.55;;;;;;;19.72;47.36;101853.72;4159019;28;20439;-49
2021/06/12 05:14:59;;;;;;;4.00;2.35;;;;;;;19.87;47.17;101856.69;4154933;28;20741;-49
2021/06/12 05:17:03;;;;;;;4.07;2.13;;;;;;;19.88;47.19;101866.72;4152157;28;20132;-50
2021/06/12 05:19:03;;;;;;;5.88;2.45;;;;;;;19.47;47.83;101863.41;4158256;28;20030;-49
2021/06/12 05:21:04;;;;;;;4.13;2.50;;;;;;;20.10;46.40;101854.72;4152452;28;20034;-51
2021/06/12 05:23:05;;;;;;;4.43;2.25;;;;;;;19.93;46.93;101869.53;4158146;28;20598;-49
2021/06/12 05:25:07;;;;;;;5.45;2.53;;;;;;;19.73;47.20;101866.53;4154500;28;20045;-55
2021/06/12 05:27:07;;;;;;;5.70;2.55;;;;;;;19.91;46.97;101860.66;4154973;28;20037;-52
2021/06/12 05:29:08;;;;;;;5.13;2.53;;;;;;;19.97;46.74;101857.91;4155883;28;20053;-58
2021/06/12 05:31:09;;;;;;;4.95;2.42;;;;;;;19.94;46.55;101857.34;4155758;28;20041;-55
2021/06/12 05:33:09;;;;;;;4.88;2.17;;;;;;;19.74;46.65;101866.25;4154125;28;20113;-58
2021/06/12 05:35:10;;;;;;;5.22;2.75;;;;;;;19.65;47.24;101862.25;4152061;28;20041;-53
2021/06/12 05:37:11;;;;;;;5.15;2.28;;;;;;;19.72;47.28;101874.00;4154753;28;20033;-51
2021/06/12 05:39:12;;;;;;;5.82;2.00;;;;;;;19.71;46.96;101877.88;4154802;28;20037;-50
2021/06/12 05:41:12;;;;;;;4.45;2.33;;;;;;;19.59;46.94;101854.97;4153445;28;20129;-53
2021/06/12 05:43:13;;;;;;;3.85;2.30;;;;;;;19.65;46.92;101884.47;4155972;28;20052;-51
2021/06/12 05:45:13;;;;;;;4.50;2.35;;;;;;;19.62;47.20;101893.34;4156340;28;20037;-50
2021/06/12 05:47:13;;;;;;;5.38;2.17;;;;;;;19.42;47.44;101905.84;4153844;28;20091;-50
2021/06/12 05:49:14;;;;;;;6.55;2.30;;;;;;;19.62;47.11;101900.81;4158341;28;20034;-50
2021/06/12 05:51:14;;;;;;;9.38;2.50;;;;;;;19.76;46.57;101893.78;4152960;28;20037;-50
2021/06/12 05:53:15;;;;;;;3.35;2.00;;;;;;;19.88;46.49;101900.06;4155831;28;20068;-51
2021/06/12 05:55:15;;;;;;;8.15;2.58;;;;;;;19.75;46.72;101898.47;4154765;28;20088;-50
2021/06/12 05:57:16;;;;;;;4.47;2.17;;;;;;;19.77;46.76;101898.22;4140109;28;20034;-50
2021/06/12 05:59:16;;;;;;;6.43;2.60;;;;;;;19.63;46.70;101908.88;4157785;28;20534;-51
2021/06/12 06:01:17;;;;;;;5.10;2.55;;;;;;;19.56;47.30;101911.84;4140435;28;20800;-52
2021/06/12 06:03:17;;;;;;;5.72;2.65;;;;;;;19.74;46.80;101913.47;4157617;28;20037;-53
2021/06/12 06:05:17;;;;;;;8.30;2.75;;;;;;;19.89;46.47;101910.06;4153837;28;20121;-50
2021/06/12 06:07:18;;;;;;;7.38;2.22;;;;;;;19.81;46.36;101910.50;4154704;28;20033;-52
2021/06/12 06:09:18;;;;;;;7.53;2.60;;;;;;;19.95;46.29;101916.53;4150753;28;20365;-51
2021/06/12 06:11:19;;;;;;;8.93;2.90;;;;;;;19.74;46.66;101882.06;4155688;28;20029;-53
2021/06/12 06:13:19;;;;;;;5.50;2.85;;;;;;;20.09;46.00;101917.78;4156696;28;20034;-55
2021/06/12 06:15:20;;;;;;;7.28;2.28;;;;;;;19.86;46.31;101910.56;4150805;28;20041;-57
2021/06/12 06:17:20;;;;;;;4.95;2.53;;;;;;;20.03;46.28;101904.09;4135114;28;20434;-56
2021/06/12 06:19:20;;;;;;;6.18;3.00;;;;;;;19.97;46.09;101908.75;4153946;28;20492;-55
2021/06/12 06:21:21;;;;;;;7.10;2.40;;;;;;;20.00;46.16;101927.69;4155805;28;20034;-55
2021/06/12 06:23:21;;;;;;;4.95;2.30;;;;;;;19.95;46.27;101922.91;4156839;28;20033;-53
2021/06/12 06:25:23;;;;;;;4.30;2.45;;;;;;;20.12;45.58;101933.13;4152516;28;20048;-55
2021/06/12 06:27:23;;;;;;;4.22;2.25;;;;;;;20.20;45.62;101943.75;4154185;28;20033;-52
2021/06/12 06:29:24;;;;;;;7.88;2.40;;;;;;;20.12;45.90;101941.44;4154474;28;20107;-53
2021/06/12 06:31:24;;;;;;;4.53;2.28;;;;;;;19.91;46.01;101927.34;4154563;28;20036;-54
2021/06/12 06:33:25;;;;;;;8.40;3.08;;;;;;;20.15;46.01;101946.50;4156208;28;20030;-55
2021/06/12 06:35:26;;;;;;;9.52;3.00;;;;;;;19.92;46.21;101942.88;4152988;28;20483;-57
2021/06/12 06:37:26;;;;;;;4.32;2.50;;;;;;;20.11;45.80;101935.06;4157897;28;20538;-58
2021/06/12 06:39:26;;;;;;;7.22;3.03;;;;;;;20.18;45.60;101934.84;4157365;28;20033;-58
2021/06/12 06:41:27;;;;;;;7.55;2.60;;;;;;;20.12;45.59;101935.88;4156158;28;20095;-58
2021/06/12 06:43:27;;;;;;;7.13;2.85;;;;;;;20.20;45.63;101929.84;4156100;28;20050;-58
2021/06/12 06:45:28;;;;;;;6.07;2.85;;;;;;;20.21;45.37;101934.31;4137277;28;20095;-56
2021/06/12 06:47:29;;;;;;;5.70;2.25;;;;;;;20.19;45.28;101938.47;4158522;28;20042;-58
2021/06/12 06:49:30;;;;;;;5.50;2.17;;;;;;;20.25;45.02;101932.72;4157329;28;20120;-57
2021/06/12 06:51:30;;;;;;;7.72;2.60;;;;;;;20.17;45.35;101935.09;4154051;28;20555;-58
2021/06/12 06:53:34;;;;;;;5.47;2.60;;;;;;;20.12;45.26;101942.28;4158343;28;20044;-58
2021/06/12 06:55:35;;;;;;;4.22;2.25;;;;;;;20.07;45.51;101928.34;4152530;28;20116;-58
2021/06/12 06:57:35;;;;;;;8.38;2.72;;;;;;;20.27;44.90;101944.41;4158819;28;20033;-55
2021/06/12 06:59:35;;;;;;;5.55;2.13;;;;;;;20.15;45.44;101945.66;4159615;28;20517;-55
2021/06/12 07:01:37;;;;;;;6.65;2.55;;;;;;;20.40;44.96;101948.69;4157206;28;20041;-51
2021/06/12 07:03:37;;;;;;;7.90;3.03;;;;;;;20.29;45.04;101950.53;4161311;28;20075;-53
2021/06/12 07:05:38;;;;;;;4.90;2.20;;;;;;;20.16;45.23;101947.31;4158535;28;20038;-54
2021/06/12 07:07:38;;;;;;;6.68;2.78;;;;;;;20.16;45.09;101953.75;4154762;28;20034;-60
2021/06/12 07:09:38;;;;;;;5.05;2.55;;;;;;;20.04;45.59;101951.09;4161652;28;20044;-59
2021/06/12 07:11:39;;;;;;;5.45;2.53;;;;;;;20.10;45.22;101952.00;4139654;28;20164;-60
2021/06/12 07:13:39;;;;;;;5.65;2.28;;;;;;;20.24;44.99;101955.22;4156113;28;20041;-59
2021/06/12 07:15:40;;;;;;;7.10;2.72;;;;;;;20.35;44.77;101953.38;4156429;28;20033;-60
2021/06/12 07:17:40;;;;;;;4.00;2.55;;;;;;;20.34;44.70;101952.53;4153606;28;20041;-59
2021/06/12 07:19:41;;;;;;;5.22;2.55;;;;;;;20.35;44.57;101956.16;4160314;28;20084;-59
2021/06/12 07:21:41;;;;;;;6.78;2.40;;;;;;;20.39;44.38;101957.28;4158124;28;20037;-60
2021/06/12 07:23:41;;;;;;;6.88;2.53;;;;;;;20.34;44.56;101954.47;4157068;28;20043;-55
2021/06/12 07:25:46;;;;;;;5.93;2.45;;;;;;;20.44;44.10;101946.25;4160038;28;20037;-56
2021/06/12 07:27:46;;;;;;;6.65;2.92;;;;;;;20.45;44.10;101956.25;4157373;28;20140;-57
2021/06/12 07:29:47;;;;;;;6.97;2.42;;;;;;;20.45;44.17;101961.81;4158272;28;20053;-54
2021/06/12 07:31:47;;;;;;;5.63;2.30;;;;;;;20.37;44.14;101942.81;4158075;28;20574;-55
2021/06/12 07:33:48;;;;;;;3.75;1.95;;;;;;;20.59;43.79;101970.59;4154708;28;20173;-53
2021/06/12 07:35:48;;;;;;;5.97;2.50;;;;;;;20.61;43.78;101974.81;4153545;28;20079;-56
2021/06/12 07:37:48;;;;;;;8.70;2.60;;;;;;;20.41;43.98;101972.63;4159123;28;20502;-58
2021/06/12 07:39:49;;;;;;;5.60;2.33;;;;;;;20.55;43.90;101970.25;4156336;28;20060;-56
2021/06/12 07:41:49;;;;;;;8.40;3.15;;;;;;;20.47;43.72;101973.53;4161121;28;20680;-58
2021/06/12 07:43:50;;;;;;;7.82;2.60;;;;;;;20.66;43.74;101980.41;4155529;28;20050;-57
2021/06/12 07:45:51;;;;;;;9.07;2.55;;;;;;;20.58;43.86;101978.13;4160590;28;20043;-58
2021/06/12 07:47:51;;;;;;;4.50;2.63;;;;;;;20.59;43.45;101971.47;4159503;28;20618;-57
2021/06/12 07:49:52;;;;;;;6.18;2.72;;;;;;;20.69;43.19;101981.84;4138262;28;20045;-56
2021/06/12 07:51:52;;;;;;;4.75;2.47;;;;;;;20.55;43.75;101988.91;4160709;28;20041;-56
2021/06/12 07:53:53;;;;;;;6.95;2.30;;;;;;;20.67;43.10;101975.69;4157243;28;20037;-54
2021/06/12 07:55:53;;;;;;;3.28;1.77;;;;;;;20.71;43.65;101987.13;4156266;28;20488;-56
2021/06/12 07:57:53;;;;;;;6.00;2.08;;;;;;;20.76;43.37;101987.16;4160545;28;20060;-55
2021/06/12 07:59:54;;;;;;;6.25;2.47;;;;;;;20.74;43.38;101987.44;4155439;28;20068;-56
2021/06/12 08:01:54;;;;;;;5.50;2.22;;;;;;;20.74;43.00;101986.59;4151511;28;20124;-56
2021/06/12 08:03:55;;;;;;;6.70;2.13;;;;;;;20.69;43.19;102006.88;4152349;28;20109;-56
2021/06/12 08:05:56;;;;;;;5.00;2.25;;;;;;;20.71;43.11;102010.22;4154987;28;20565;-51
2021/06/12 08:07:57;;;;;;;8.90;2.78;;;;;;;20.73;42.87;102005.25;4139799;28;20061;-54
2021/06/12 08:10:00;;;;;;;9.82;2.17;;;;;;;20.74;42.94;102006.09;4158738;28;20045;-56
2021/06/12 08:12:01;;;;;;;7.45;2.28;;;;;;;20.84;42.57;102008.97;4155532;28;20633;-55
2021/06/12 08:14:01;;;;;;;7.00;2.40;;;;;;;20.67;42.74;101979.31;4157926;28;20045;-58
2021/06/12 08:16:03;;;;;;;6.43;2.45;;;;;;;20.76;42.84;102001.09;4156073;28;20033;-55
2021/06/12 08:18:04;;;;;;;4.13;2.08;;;;;;;20.74;42.65;102011.66;4158761;28;20450;-54
2021/06/12 08:20:05;;;;;;;6.35;2.00;;;;;;;20.76;42.65;102012.22;4155661;28;20037;-54
2021/06/12 08:22:06;;;;;;;6.63;2.10;;;;;;;20.65;42.72;102006.56;4154074;28;20056;-55
2021/06/12 08:24:06;;;;;;;5.07;2.35;;;;;;;20.77;42.70;102009.16;4159896;28;20029;-55
2021/06/12 08:26:07;;;;;;;3.75;2.10;;;;;;;20.87;42.52;102014.00;4155307;28;20037;-57
2021/06/12 08:28:07;;;;;;;6.53;2.25;;;;;;;21.00;41.88;102018.28;4155321;28;20480;-56
2021/06/12 08:30:09;;;;;;;6.43;2.65;;;;;;;20.92;42.11;102024.34;4160372;28;20764;-54
2021/06/12 08:32:10;;;;;;;5.10;2.40;;;;;;;21.00;42.07;102030.25;4157629;28;20137;-56
2021/06/12 08:34:10;;;;;;;6.63;1.98;;;;;;;20.91;42.12;102033.78;4154578;28;20040;-51
2021/06/12 08:36:11;;;;;;;6.05;1.98;;;;;;;21.01;42.17;102034.72;4158267;28;20037;-55
2021/06/12 08:38:11;;;;;;;5.25;2.70;;;;;;;20.91;42.32;102036.56;4157089;28;20033;-53
2021/06/12 08:40:12;;;;;;;5.25;2.20;;;;;;;21.01;42.11;102025.53;4155934;28;20042;-54
2021/06/12 08:42:13;;;;;;;7.55;2.60;;;;;;;21.09;41.60;102038.97;4157236;28;20037;-54
2021/06/12 08:44:14;;;;;;;6.35;2.70;;;;;;;21.16;41.46;102025.66;4155396;28;20049;-55
2021/06/12 08:46:14;;;;;;;5.50;2.05;;;;;;;21.05;41.72;102029.44;4159556;28;20033;-56
2021/06/12 08:48:16;;;;;;;5.18;2.08;;;;;;;21.11;41.19;102041.47;4155161;28;20045;-53
2021/06/12 08:50:19;;;;;;;6.97;2.60;;;;;;;21.13;41.56;102040.13;4155582;28;20040;-55
2021/06/12 08:52:19;;;;;;;6.22;2.47;;;;;;;21.14;41.54;102043.72;4158325;28;20038;-54
2021/06/12 08:54:22;;;;;;;5.25;2.15;;;;;;;21.14;41.47;102043.72;4155148;28;20033;-57
2021/06/12 08:56:22;;;;;;;6.55;2.03;;;;;;;21.14;41.25;102049.31;4150300;28;20033;-56
2021/06/12 08:58:22;;;;;;;5.95;2.30;;;;;;;21.14;41.34;102036.22;4152427;28;20136;-56
2021/06/12 09:00:23;;;;;;;8.23;2.35;;;;;;;21.16;41.54;102050.72;4154849;28;20045;-54
2021/06/12 09:02:24;;;;;;;3.40;2.13;;;;;;;21.26;41.13;102040.78;4156484;28;20460;-54
2021/06/12 09:04:30;;;;;;;5.32;2.00;;;;;;;21.34;41.09;102055.06;4154759;28;20034;-51
2021/06/12 09:06:30;;;;;;;6.72;2.78;;;;;;;21.26;41.55;102060.28;4157081;28;20553;-55
2021/06/12 09:08:33;;;;;;;6.38;2.38;;;;;;;21.31;41.04;102063.13;4158384;28;20037;-50
2021/06/12 09:10:34;;;;;;;6.18;2.15;;;;;;;21.25;41.23;102064.16;4156660;28;20452;-53
2021/06/12 09:12:49;;;;;;;7.78;2.28;;;;;;;21.36;41.24;102083.50;4153183;28;20029;-54
2021/06/12 09:15:18;;;;;;;8.88;2.10;;;;;;;21.26;41.12;102083.38;4154762;28;20026;-53
2021/06/12 09:17:36;;;;;;;5.20;2.22;;;;;;;21.32;41.33;102075.94;4157182;28;20030;-55
2021/06/12 09:19:41;;;;;;;5.45;1.90;;;;;;;21.30;41.27;102073.44;4154686;28;20030;-54
2021/06/12 09:21:43;;;;;;;9.27;2.55;;;;;;;21.40;41.28;102080.19;4156714;28;20389;-55
2021/06/12 09:23:44;;;;;;;7.55;2.03;;;;;;;21.37;40.97;102085.16;4157512;28;20071;-52
2021/06/12 09:25:46;;;;;;;7.70;2.03;;;;;;;21.27;40.96;102067.50;4152564;28;20034;-54